Mayflower, Arkansas
Current Conditions -  °F | °C
As of 12:58 AM on Sunday 23 Nov 2014 (Local Time) from KLRF Reporting Station
Scattered Clouds Scattered Clouds  
Wind Chill: 57°   Ceiling: Unl
Heat Index: 57°   Visibility: 10mi
Dew Point: 51°   Wind: 5mph
Humidity: 78%   Direction: 150°SSE
Pressure: 29.82"   Gusts: NA
Location:  34.96°N, 92.43°W
Report Text: KLRF 230658Z AUTO 15004KT 10SM FEW037 SCT065 SCT170 14/10 A2982 RMK AO2 SLP100 T01410103
Loading
Personal Weather Stations






























Interactive Weather Map New forecast layout! Learn more

10-Day Weather Forecast

Advertisements
Track Severe Weather on mobile